Time;durP1;ratioP1;P1;durP2;ratioP2;P2;SDS_P1;SDS_P2;PMS_P1;PMS_P2;Temp;Humidity;BMP_temperature;BMP_pressure;BME280_temperature;BME280_humidity;BME280_pressure;Samples;Min_cycle;Max_cycle;Signal;HPM_P1;HPM_P2
2022/07/04 00:01:21;;;;;;;5.40;2.60;;;15.40;99.90;;;;;;5021440;28;20207;-66
2022/07/04 00:03:49;;;;;;;4.03;2.67;;;15.50;99.90;;;;;;5035937;28;20227;-67
2022/07/04 00:06:16;;;;;;;5.70;3.00;;;15.40;99.90;;;;;;5036527;28;20655;-65
2022/07/04 00:08:43;;;;;;;3.10;2.83;;;15.40;99.90;;;;;;5036976;28;20194;-67
2022/07/04 00:11:10;;;;;;;4.13;2.80;;;15.30;99.90;;;;;;5039465;28;20203;-64
2022/07/04 00:13:37;;;;;;;6.63;3.00;;;15.40;99.90;;;;;;5039373;28;20849;-62
2022/07/04 00:16:04;;;;;;;3.20;2.73;;;15.30;99.90;;;;;;5024546;28;20215;-63
2022/07/04 00:18:31;;;;;;;6.53;2.90;;;15.30;99.90;;;;;;5030171;28;20211;-63
2022/07/04 00:21:00;;;;;;;3.27;2.70;;;15.30;99.90;;;;;;5043056;28;20196;-64
2022/07/04 00:23:26;;;;;;;3.07;2.77;;;15.30;99.90;;;;;;5037879;28;20220;-65
2022/07/04 00:25:53;;;;;;;3.30;2.70;;;15.30;99.90;;;;;;5043035;28;20208;-64
2022/07/04 00:28:20;;;;;;;3.10;2.80;;;15.30;99.90;;;;;;5037451;28;20203;-62
2022/07/04 00:30:47;;;;;;;6.57;2.83;;;15.20;99.90;;;;;;5025499;28;20559;-63
2022/07/04 00:33:15;;;;;;;6.03;3.17;;;15.20;99.90;;;;;;5038755;28;20215;-65
2022/07/04 00:35:42;;;;;;;4.17;2.87;;;15.20;99.90;;;;;;5033520;28;20216;-67
2022/07/04 00:38:11;;;;;;;5.43;2.93;;;15.20;99.90;;;;;;5038993;28;20287;-66
2022/07/04 00:40:38;;;;;;;5.20;3.20;;;15.20;99.90;;;;;;5039465;28;20194;-67
2022/07/04 00:43:06;;;;;;;4.63;2.87;;;15.10;99.90;;;;;;5042692;28;20257;-67
2022/07/04 00:45:33;;;;;;;5.53;3.07;;;15.10;99.90;;;;;;5024388;28;20207;-66
2022/07/04 00:48:00;;;;;;;3.07;2.83;;;15.20;99.90;;;;;;5039445;28;20207;-65
2022/07/04 00:50:27;;;;;;;2.97;2.77;;;15.10;99.90;;;;;;5032523;28;20195;-65
2022/07/04 00:52:55;;;;;;;5.07;2.97;;;15.20;99.90;;;;;;5041886;28;20224;-65
2022/07/04 00:55:24;;;;;;;8.20;3.03;;;15.10;99.90;;;;;;5030930;28;20222;-63
2022/07/04 00:57:51;;;;;;;6.73;3.37;;;15.10;99.90;;;;;;5041558;28;20277;-60
2022/07/04 01:00:19;;;;;;;3.70;2.80;;;15.10;99.90;;;;;;5024514;28;20592;-61
2022/07/04 01:02:46;;;;;;;5.73;2.97;;;15.10;99.90;;;;;;5036500;28;20719;-61
2022/07/04 01:05:14;;;;;;;3.50;3.20;;;15.10;99.90;;;;;;5037476;28;20928;-65
2022/07/04 01:07:41;;;;;;;4.47;3.00;;;15.10;99.90;;;;;;5035815;28;20942;-65
2022/07/04 01:10:08;;;;;;;3.63;3.30;;;15.10;99.90;;;;;;5037893;28;20207;-65
2022/07/04 01:12:38;;;;;;;4.73;3.57;;;15.10;99.90;;;;;;5040208;28;20253;-66
2022/07/04 01:15:05;;;;;;;3.97;3.57;;;15.00;99.90;;;;;;5037178;28;20249;-65
2022/07/04 01:17:32;;;;;;;5.20;4.00;;;15.00;99.90;;;;;;5016396;28;20194;-65
2022/07/04 01:19:59;;;;;;;4.97;3.93;;;14.80;99.90;;;;;;5041589;28;20203;-65
2022/07/04 01:22:27;;;;;;;5.67;3.43;;;14.90;99.90;;;;;;5031652;28;20206;-63
2022/07/04 01:24:54;;;;;;;9.70;4.40;;;14.90;99.90;;;;;;5041465;28;20199;-66
2022/07/04 01:27:21;;;;;;;4.83;3.93;;;14.90;99.90;;;;;;5039685;28;20555;-64
2022/07/04 01:29:48;;;;;;;7.37;4.87;;;14.90;99.90;;;;;;5042378;28;20199;-63
2022/07/04 01:32:16;;;;;;;8.60;4.60;;;14.90;99.90;;;;;;5024980;28;20211;-63
2022/07/04 01:34:44;;;;;;;5.80;4.87;;;14.90;99.90;;;;;;5040448;28;20219;-65
2022/07/04 01:37:11;;;;;;;6.80;4.50;;;14.90;99.90;;;;;;5041254;28;20211;-64
2022/07/04 01:39:40;;;;;;;7.37;5.33;;;14.90;99.90;;;;;;5034748;28;20918;-67
2022/07/04 01:42:07;;;;;;;8.07;5.97;;;14.80;99.90;;;;;;5041506;28;20235;-65
2022/07/04 01:44:35;;;;;;;7.73;6.03;;;14.80;99.90;;;;;;5042582;28;20203;-65
2022/07/04 01:47:02;;;;;;;7.40;5.90;;;14.80;99.90;;;;;;5031122;28;20599;-67
2022/07/04 01:49:29;;;;;;;10.07;5.67;;;14.70;99.90;;;;;;5042414;28;20191;-65
2022/07/04 01:51:57;;;;;;;8.97;6.67;;;14.70;99.90;;;;;;5042128;28;20203;-64
2022/07/04 01:54:25;;;;;;;7.10;6.27;;;14.70;99.90;;;;;;5030618;28;20219;-65
2022/07/04 01:56:53;;;;;;;8.00;7.20;;;14.70;99.90;;;;;;5046078;28;20237;-64
2022/07/04 02:01:29;;;;;;;8.07;7.10;;;14.70;99.90;;;;;;5042165;28;20199;-63
2022/07/04 02:02:05;;;;;;;9.00;7.00;;;14.70;99.90;;;;;;5042936;28;20214;-65
2022/07/04 02:04:32;;;;;;;8.30;7.50;;;14.60;99.90;;;;;;5027411;28;20211;-66
2022/07/04 02:07:01;;;;;;;10.17;7.70;;;14.70;99.90;;;;;;5046340;28;20209;-64
2022/07/04 02:09:28;;;;;;;7.83;7.07;;;14.70;99.90;;;;;;5030227;28;20290;-64
2022/07/04 02:14:41;;;;;;;9.00;7.87;;;14.70;99.90;;;;;;5043801;28;20207;-67
2022/07/04 02:17:08;;;;;;;9.77;8.77;;;14.60;99.90;;;;;;5033704;28;20196;-67
2022/07/04 02:19:35;;;;;;;10.97;8.83;;;14.60;99.90;;;;;;5020265;28;20206;-64
2022/07/04 02:22:01;;;;;;;9.93;8.63;;;14.70;99.90;;;;;;5038783;28;20199;-64
2022/07/04 02:24:29;;;;;;;10.13;9.10;;;14.50;99.90;;;;;;5043910;28;20786;-64
2022/07/04 02:27:00;;;;;;;9.77;8.80;;;14.60;99.90;;;;;;5039282;28;20282;-65
2022/07/04 02:29:27;;;;;;;10.03;9.00;;;14.40;99.90;;;;;;5027853;28;20198;-65
2022/07/04 02:31:53;;;;;;;11.13;9.93;;;14.40;99.90;;;;;;5038444;28;20199;-65
2022/07/04 02:34:20;;;;;;;14.70;10.43;;;14.50;99.90;;;;;;5026252;28;20703;-65
2022/07/04 02:36:47;;;;;;;17.97;12.27;;;14.50;99.90;;;;;;5041828;28;20656;-64
2022/07/04 02:39:14;;;;;;;15.17;11.50;;;14.50;99.90;;;;;;5036731;28;20215;-64
2022/07/04 02:41:40;;;;;;;16.03;12.97;;;14.50;99.90;;;;;;5043800;28;20283;-64
2022/07/04 02:44:09;;;;;;;16.27;12.60;;;14.50;99.90;;;;;;5044821;28;20699;-65
2022/07/04 02:46:37;;;;;;;18.17;12.37;;;14.50;99.90;;;;;;5042602;28;20196;-60
2022/07/04 02:49:04;;;;;;;15.33;12.20;;;14.40;99.90;;;;;;5045588;28;20195;-61
2022/07/04 02:51:31;;;;;;;16.07;12.07;;;14.50;99.90;;;;;;5021571;28;20203;-63
2022/07/04 02:53:58;;;;;;;16.20;12.50;;;14.50;99.90;;;;;;5037547;28;20726;-63
2022/07/04 02:56:26;;;;;;;15.77;12.67;;;14.50;99.90;;;;;;5041147;28;20227;-61
2022/07/04 02:58:53;;;;;;;17.50;13.70;;;14.50;99.90;;;;;;5043589;28;20191;-61
2022/07/04 03:01:21;;;;;;;18.40;13.23;;;14.50;99.90;;;;;;5040691;28;20195;-61
2022/07/04 03:03:48;;;;;;;17.00;12.13;;;14.50;99.90;;;;;;5040560;28;20243;-63
2022/07/04 03:06:15;;;;;;;13.40;11.23;;;14.50;99.90;;;;;;5027294;28;20565;-64
2022/07/04 03:08:42;;;;;;;17.17;11.93;;;14.50;99.90;;;;;;5030427;28;20199;-61
2022/07/04 03:11:09;;;;;;;14.03;11.73;;;14.40;99.90;;;;;;5043605;28;20199;-64
2022/07/04 03:13:36;;;;;;;13.60;10.63;;;14.40;99.90;;;;;;5039939;28;20298;-63
2022/07/04 03:16:03;;;;;;;14.37;10.70;;;14.40;99.90;;;;;;5043733;28;20219;-65
2022/07/04 03:18:32;;;;;;;10.73;9.37;;;14.40;99.90;;;;;;5037466;28;20198;-65
2022/07/04 03:20:59;;;;;;;12.33;10.23;;;14.40;99.90;;;;;;5044670;28;20238;-60
2022/07/04 03:23:25;;;;;;;15.93;10.17;;;14.40;99.90;;;;;;5023841;28;20327;-62
2022/07/04 03:25:52;;;;;;;14.13;10.37;;;14.40;99.90;;;;;;5038295;28;20210;-61
2022/07/04 03:28:19;;;;;;;15.07;9.97;;;14.40;99.90;;;;;;5028726;28;20269;-63
2022/07/04 03:30:45;;;;;;;16.43;10.47;;;14.40;99.90;;;;;;5038983;28;20565;-61
2022/07/04 03:33:12;;;;;;;12.60;10.27;;;14.40;99.90;;;;;;5032378;28;20228;-67
2022/07/04 03:35:40;;;;;;;11.00;9.83;;;14.40;99.90;;;;;;5043474;28;20277;-64
2022/07/04 03:38:07;;;;;;;12.63;10.00;;;14.40;99.90;;;;;;5023110;28;20309;-65
2022/07/04 03:40:35;;;;;;;11.37;8.67;;;14.40;99.90;;;;;;5035735;28;20191;-64
2022/07/04 03:43:03;;;;;;;10.43;9.33;;;14.40;99.90;;;;;;5037855;28;20227;-64
2022/07/04 03:45:29;;;;;;;11.30;9.20;;;14.40;99.90;;;;;;5032492;28;20196;-66
2022/07/04 03:47:57;;;;;;;11.50;9.00;;;14.40;99.90;;;;;;5033177;28;20592;-65
2022/07/04 03:50:24;;;;;;;10.77;9.67;;;14.40;99.90;;;;;;5041354;28;20226;-64
2022/07/04 03:52:52;;;;;;;11.03;8.63;;;14.40;99.90;;;;;;5026574;28;20304;-64
2022/07/04 03:55:19;;;;;;;11.07;9.87;;;14.40;99.90;;;;;;5039049;28;20215;-67
2022/07/04 03:57:46;;;;;;;10.00;9.03;;;14.30;99.90;;;;;;5033896;28;20286;-65
2022/07/04 04:00:14;;;;;;;12.67;9.97;;;14.30;99.90;;;;;;5038474;28;20253;-62
2022/07/04 04:02:41;;;;;;;11.40;10.20;;;14.30;99.90;;;;;;5036255;28;20227;-62
2022/07/04 04:05:26;;;;;;;12.60;10.27;;;14.30;99.90;;;;;;5030512;28;20206;-62
2022/07/04 04:07:56;;;;;;;11.20;10.10;;;14.30;99.90;;;;;;5023324;28;20241;-62
2022/07/04 04:10:23;;;;;;;12.57;11.00;;;14.30;99.90;;;;;;5035690;28;20188;-62
2022/07/04 04:12:50;;;;;;;12.33;10.30;;;14.30;99.90;;;;;;5030567;28;20231;-64
2022/07/04 04:15:17;;;;;;;12.37;10.57;;;14.30;99.90;;;;;;5039394;28;20227;-64
2022/07/04 04:17:44;;;;;;;12.50;10.70;;;14.40;99.90;;;;;;5037760;28;20199;-64
2022/07/04 04:20:11;;;;;;;15.80;12.93;;;14.40;99.90;;;;;;5034293;28;20191;-64
2022/07/04 04:22:38;;;;;;;14.87;12.03;;;14.40;99.90;;;;;;5032973;28;20204;-64
2022/07/04 04:25:07;;;;;;;15.23;12.00;;;14.30;99.90;;;;;;5022385;28;20962;-65
2022/07/04 04:27:34;;;;;;;13.07;11.07;;;14.30;99.90;;;;;;5035878;28;20651;-63
2022/07/04 04:30:01;;;;;;;14.50;11.67;;;14.30;99.90;;;;;;5033620;28;20691;-63
2022/07/04 04:32:28;;;;;;;14.83;12.73;;;14.40;99.90;;;;;;5039000;28;20207;-66
2022/07/04 04:34:55;;;;;;;15.57;12.27;;;14.40;99.90;;;;;;5039946;28;20218;-63
2022/07/04 04:37:21;;;;;;;12.37;11.10;;;14.40;99.90;;;;;;5038777;28;20197;-63
2022/07/04 04:39:48;;;;;;;12.60;11.33;;;14.40;99.90;;;;;;5024883;28;20216;-66
2022/07/04 04:42:17;;;;;;;12.30;10.83;;;14.40;99.90;;;;;;5029493;28;20204;-63
2022/07/04 04:44:44;;;;;;;12.93;11.53;;;14.50;99.90;;;;;;5037970;28;20216;-63
2022/07/04 04:47:11;;;;;;;13.80;10.90;;;14.50;99.90;;;;;;5036923;28;20223;-66
2022/07/04 04:49:37;;;;;;;11.83;10.63;;;14.60;99.90;;;;;;5036516;28;20202;-66
2022/07/04 04:52:05;;;;;;;20.50;11.10;;;14.60;99.90;;;;;;5038272;28;20788;-66
2022/07/04 04:54:32;;;;;;;13.17;10.67;;;14.70;99.90;;;;;;5023323;28;20223;-65
2022/07/04 04:57:00;;;;;;;14.23;10.50;;;14.70;99.90;;;;;;5038212;28;20215;-65
2022/07/04 04:59:30;;;;;;;11.50;9.30;;;14.70;99.90;;;;;;5027357;28;20669;-65
2022/07/04 05:01:56;;;;;;;10.43;9.33;;;14.80;99.90;;;;;;5033457;28;20335;-65
2022/07/04 05:04:23;;;;;;;15.50;8.57;;;14.80;99.90;;;;;;5037597;28;20219;-66
2022/07/04 05:06:50;;;;;;;8.47;7.63;;;14.90;99.90;;;;;;5040277;28;20207;-65
2022/07/04 05:09:17;;;;;;;11.17;8.33;;;14.90;99.90;;;;;;5024356;28;20210;-65
2022/07/04 05:11:44;;;;;;;12.97;8.23;;;15.00;99.90;;;;;;5036185;28;20199;-65
2022/07/04 05:14:10;;;;;;;13.80;7.77;;;15.00;99.90;;;;;;5022864;28;20226;-65
2022/07/04 05:16:39;;;;;;;8.70;7.17;;;15.10;99.90;;;;;;5035506;28;20318;-65
2022/07/04 05:19:06;;;;;;;8.30;6.67;;;15.10;99.90;;;;;;5034201;28;20914;-65
2022/07/04 05:21:33;;;;;;;8.67;6.43;;;15.10;99.90;;;;;;5043374;28;20203;-65
2022/07/04 05:23:59;;;;;;;7.93;5.70;;;15.20;99.90;;;;;;5024867;28;20606;-65
2022/07/04 05:26:27;;;;;;;8.37;7.40;;;15.30;99.90;;;;;;5043749;28;20203;-65
2022/07/04 05:28:55;;;;;;;6.27;5.67;;;15.30;99.90;;;;;;5033980;28;20203;-65
2022/07/04 05:31:21;;;;;;;6.13;5.33;;;15.40;99.90;;;;;;5039365;28;20912;-65
2022/07/04 05:33:50;;;;;;;5.93;4.67;;;15.40;99.90;;;;;;5041562;28;20226;-64
2022/07/04 05:36:16;;;;;;;5.73;4.10;;;15.50;99.90;;;;;;5041035;28;20210;-65
2022/07/04 05:38:43;;;;;;;5.27;3.93;;;15.50;99.90;;;;;;5042042;28;20266;-63
2022/07/04 05:41:10;;;;;;;5.80;3.47;;;15.50;99.90;;;;;;5025983;28;20602;-64
2022/07/04 05:43:36;;;;;;;3.77;2.90;;;15.60;99.90;;;;;;5041892;28;20219;-63
2022/07/04 05:46:03;;;;;;;4.17;2.57;;;15.60;99.90;;;;;;5032167;28;20192;-63
2022/07/04 05:48:30;;;;;;;5.07;3.23;;;15.70;99.90;;;;;;5036890;28;20219;-62
2022/07/04 05:50:58;;;;;;;3.23;2.50;;;15.70;99.90;;;;;;5039119;28;20231;-62
2022/07/04 05:53:25;;;;;;;4.23;2.47;;;15.80;99.90;;;;;;5039892;28;20270;-62
2022/07/04 05:55:52;;;;;;;3.67;2.33;;;15.80;99.90;;;;;;5015685;28;20783;-64
2022/07/04 05:58:19;;;;;;;5.67;2.30;;;15.90;99.90;;;;;;5042775;28;20229;-64
2022/07/04 06:00:45;;;;;;;2.23;1.90;;;16.00;99.90;;;;;;5039615;28;20195;-64
2022/07/04 06:03:12;;;;;;;5.10;1.80;;;16.00;99.90;;;;;;5039052;28;20214;-64
2022/07/04 06:05:40;;;;;;;2.93;1.70;;;16.00;99.90;;;;;;5044699;28;20203;-63
2022/07/04 06:08:08;;;;;;;3.13;1.73;;;16.10;99.90;;;;;;5041525;28;20199;-64
2022/07/04 06:10:35;;;;;;;14.97;8.07;;;16.20;99.90;;;;;;5044715;28;20647;-64
2022/07/04 06:13:01;;;;;;;2.43;1.40;;;16.20;99.90;;;;;;5023975;28;20230;-64
2022/07/04 06:15:29;;;;;;;3.10;1.83;;;16.30;99.90;;;;;;5043831;28;20199;-66
2022/07/04 06:17:55;;;;;;;3.07;1.53;;;16.30;99.90;;;;;;5030465;28;20879;-66
2022/07/04 06:20:23;;;;;;;4.23;1.50;;;16.30;99.90;;;;;;5042313;28;20188;-64
2022/07/04 06:22:50;;;;;;;3.00;1.50;;;16.40;99.90;;;;;;5042819;28;20223;-63
2022/07/04 06:25:20;;;;;;;3.53;1.57;;;16.40;99.90;;;;;;5039890;28;20211;-63
2022/07/04 06:27:48;;;;;;;3.50;1.20;;;16.40;99.90;;;;;;5027292;28;20703;-64
2022/07/04 06:30:16;;;;;;;2.67;1.30;;;16.40;99.90;;;;;;5042585;28;20195;-63
2022/07/04 06:32:45;;;;;;;2.43;1.20;;;16.50;99.90;;;;;;5037024;28;20226;-62
2022/07/04 06:37:57;;;;;;;4.43;1.70;;;16.60;99.90;;;;;;5036354;28;20219;-64
2022/07/04 06:40:25;;;;;;;3.63;1.30;;;16.70;99.90;;;;;;5045897;28;20271;-64
2022/07/04 06:42:52;;;;;;;3.10;1.53;;;16.70;99.90;;;;;;5028704;28;20620;-63
2022/07/04 06:45:18;;;;;;;3.87;1.53;;;16.90;99.90;;;;;;5043626;28;20208;-63
2022/07/04 06:47:45;;;;;;;3.10;1.10;;;16.90;99.90;;;;;;5038945;28;20607;-63
2022/07/04 06:50:12;;;;;;;6.03;1.20;;;17.00;99.90;;;;;;5034309;28;20195;-63
2022/07/04 06:52:39;;;;;;;2.80;1.03;;;16.90;99.90;;;;;;5042867;28;20202;-63
2022/07/04 06:55:07;;;;;;;6.43;1.33;;;16.90;99.90;;;;;;5042339;28;20300;-63
2022/07/04 06:57:35;;;;;;;2.40;1.10;;;17.00;99.90;;;;;;5040795;28;20220;-64
2022/07/04 07:00:03;;;;;;;2.90;1.20;;;17.10;99.90;;;;;;5024643;28;20199;-63
2022/07/04 07:02:30;;;;;;;3.67;1.20;;;17.20;99.90;;;;;;5044487;28;20200;-63
2022/07/04 07:04:57;;;;;;;5.77;1.33;;;17.20;99.90;;;;;;5032888;28;20215;-63
2022/07/04 07:07:25;;;;;;;3.33;1.60;;;17.30;99.90;;;;;;5045329;28;20207;-64
2022/07/04 07:09:52;;;;;;;1.57;1.10;;;17.40;99.90;;;;;;5036926;28;20187;-62
2022/07/04 07:12:19;;;;;;;2.03;1.17;;;17.40;99.90;;;;;;5043862;28;20214;-62
2022/07/04 07:14:47;;;;;;;3.47;1.17;;;17.40;99.90;;;;;;5033829;28;20226;-62
2022/07/04 07:17:15;;;;;;;1.60;0.90;;;17.50;99.90;;;;;;5038431;28;20731;-62
2022/07/04 07:19:42;;;;;;;5.57;1.27;;;17.60;99.90;;;;;;5034795;28;20203;-62
2022/07/04 07:22:09;;;;;;;4.73;1.57;;;17.60;99.90;;;;;;5041364;28;20195;-62
2022/07/04 07:24:35;;;;;;;2.27;1.30;;;17.60;99.90;;;;;;5044748;28;20755;-62
2022/07/04 07:27:02;;;;;;;2.80;1.10;;;17.70;99.90;;;;;;5034264;28;20192;-62
2022/07/04 07:29:30;;;;;;;4.20;1.40;;;17.70;99.90;;;;;;5043289;28;20560;-62
2022/07/04 07:31:58;;;;;;;2.90;1.33;;;17.60;99.90;;;;;;5023574;28;20290;-62
2022/07/04 07:34:25;;;;;;;5.80;0.90;;;17.60;99.90;;;;;;5041676;28;20325;-62
2022/07/04 07:36:52;;;;;;;3.80;1.03;;;17.60;99.90;;;;;;5040669;28;20266;-63
2022/07/04 07:39:19;;;;;;;5.60;1.17;;;17.80;99.90;;;;;;5042658;28;20799;-60
2022/07/04 07:41:46;;;;;;;5.67;1.10;;;17.80;99.90;;;;;;5041565;28;20206;-61
2022/07/04 07:44:13;;;;;;;2.42;1.27;;;17.80;99.90;;;;;;5040781;28;20444;-60
2022/07/04 07:46:40;;;;;;;1.10;0.90;;;18.00;99.90;;;;;;5039062;28;20195;-61
2022/07/04 07:49:08;;;;;;;2.67;1.03;;;18.00;99.90;;;;;;5031610;28;20206;-60
2022/07/04 07:51:34;;;;;;;4.67;1.20;;;18.00;99.90;;;;;;5040129;28;20336;-60
2022/07/04 07:54:01;;;;;;;2.90;0.90;;;18.00;99.90;;;;;;5040032;28;20212;-60
2022/07/04 07:56:28;;;;;;;3.97;1.35;;;18.10;99.90;;;;;;5042348;28;20443;-60
2022/07/04 07:58:54;;;;;;;2.03;1.00;;;18.10;99.90;;;;;;5037087;28;20928;-60
2022/07/04 08:01:21;;;;;;;1.77;1.00;;;17.90;99.90;;;;;;5042415;28;20428;-60
2022/07/04 08:06:34;;;;;;;1.50;1.40;;;18.00;99.90;;;;;;5042884;28;20222;-61
2022/07/04 08:09:01;;;;;;;2.77;1.57;;;18.00;99.90;;;;;;5029789;28;20207;-60
2022/07/04 08:11:28;;;;;;;2.90;1.57;;;18.20;99.90;;;;;;5040902;28;20203;-60
2022/07/04 08:13:55;;;;;;;2.77;0.70;;;18.30;99.90;;;;;;5038759;28;20235;-60
2022/07/04 08:16:22;;;;;;;2.00;0.83;;;18.40;99.90;;;;;;5034684;28;20227;-61
2022/07/04 08:18:48;;;;;;;4.23;0.93;;;18.50;99.90;;;;;;5025439;28;20207;-60
2022/07/04 08:21:15;;;;;;;1.80;0.93;;;18.60;99.90;;;;;;5040135;28;20203;-60
2022/07/04 08:23:43;;;;;;;2.10;1.10;;;18.60;99.90;;;;;;5035905;28;20629;-60
2022/07/04 08:26:10;;;;;;;4.20;0.90;;;18.70;99.90;;;;;;5037577;28;20199;-60
2022/07/04 08:28:37;;;;;;;2.43;0.73;;;18.80;99.90;;;;;;5034410;28;20192;-60
2022/07/04 08:31:04;;;;;;;1.37;0.70;;;18.90;99.90;;;;;;5042244;28;20210;-60
2022/07/04 08:33:31;;;;;;;1.53;0.80;;;18.90;99.90;;;;;;5022726;28;20215;-60
2022/07/04 08:35:58;;;;;;;2.30;1.07;;;18.80;99.90;;;;;;5041829;28;20660;-60
2022/07/04 08:38:25;;;;;;;1.03;0.60;;;18.80;99.90;;;;;;5031453;28;20231;-61
2022/07/04 08:40:59;;;;;;;1.40;0.90;;;18.90;99.90;;;;;;5043015;28;20235;-61
2022/07/04 08:43:26;;;;;;;3.80;1.23;;;18.90;99.90;;;;;;5037413;28;20218;-61
2022/07/04 08:45:55;;;;;;;2.57;1.00;;;19.00;99.90;;;;;;5043021;28;20656;-61
2022/07/04 08:48:25;;;;;;;1.10;1.00;;;19.10;99.90;;;;;;5020884;28;20233;-61
2022/07/04 08:50:56;;;;;;;0.90;0.60;;;19.30;99.90;;;;;;5042383;28;20559;-61
2022/07/04 08:53:27;;;;;;;2.33;1.30;;;19.40;99.90;;;;;;5029473;28;20222;-61
2022/07/04 08:58:42;;;;;;;2.93;0.80;;;19.70;99.90;;;;;;5040510;28;20215;-60
2022/07/04 09:01:14;;;;;;;3.13;1.03;;;19.90;99.90;;;;;;5041088;28;20287;-60
2022/07/04 09:03:43;;;;;;;0.80;0.80;;;19.80;99.90;;;;;;5042061;28;20230;-60
2022/07/04 09:06:11;;;;;;;0.70;0.63;;;19.80;99.90;;;;;;5024826;28;20285;-60
2022/07/04 09:08:38;;;;;;;2.03;0.60;;;19.90;99.90;;;;;;5041654;28;20195;-61
2022/07/04 09:11:06;;;;;;;5.37;1.00;;;19.90;99.90;;;;;;5035239;28;20207;-61
2022/07/04 09:13:34;;;;;;;1.70;0.73;;;19.80;99.90;;;;;;5040698;28;20212;-61
2022/07/04 09:16:02;;;;;;;2.10;0.70;;;19.90;99.90;;;;;;5042754;28;20202;-61
2022/07/04 09:18:30;;;;;;;3.00;1.00;;;20.00;99.90;;;;;;5040097;28;20215;-61
2022/07/04 09:20:59;;;;;;;2.43;0.77;;;20.00;99.90;;;;;;5023760;28;20211;-61
2022/07/04 09:23:28;;;;;;;1.63;0.70;;;20.10;99.90;;;;;;5038363;28;20796;-61
2022/07/04 09:26:14;;;;;;;1.00;0.50;;;20.20;99.90;;;;;;5034200;28;20202;-61
2022/07/04 09:28:43;;;;;;;2.00;0.80;;;20.10;99.90;;;;;;5042588;28;20199;-61
2022/07/04 09:31:20;;;;;;;1.60;0.80;;;20.20;99.90;;;;;;5040406;28;20249;-61
2022/07/04 09:33:50;;;;;;;1.53;0.90;;;20.20;99.90;;;;;;5035803;28;20226;-61
2022/07/04 09:36:18;;;;;;;0.83;0.50;;;20.30;99.90;;;;;;5017277;28;20611;-61
2022/07/04 09:38:46;;;;;;;1.03;0.80;;;20.40;99.90;;;;;;5041123;28;20229;-61
2022/07/04 09:41:29;;;;;;;1.73;0.70;;;20.40;99.90;;;;;;5033146;28;20211;-61
2022/07/04 09:44:01;;;;;;;2.60;1.10;;;20.30;99.90;;;;;;5042324;28;20223;-61
2022/07/04 09:46:27;;;;;;;1.67;0.70;;;20.30;99.90;;;;;;5039666;28;20199;-61
2022/07/04 09:48:56;;;;;;;0.40;0.40;;;20.30;99.90;;;;;;5042016;28;20245;-61
2022/07/04 09:51:40;;;;;;;1.03;0.60;;;20.40;99.90;;;;;;5022990;28;24856;-61
2022/07/04 09:54:15;;;;;;;2.00;0.70;;;20.50;99.90;;;;;;5029009;28;20215;-61
2022/07/04 09:56:44;;;;;;;3.30;0.80;;;20.50;99.90;;;;;;5029107;28;20203;-62
2022/07/04 09:59:10;;;;;;;0.77;0.40;;;20.50;99.90;;;;;;5036318;28;20210;-61
2022/07/04 10:01:39;;;;;;;0.77;0.60;;;20.40;99.90;;;;;;5030407;28;20203;-62
2022/07/04 10:04:06;;;;;;;0.60;0.60;;;20.60;99.90;;;;;;5040689;28;20718;-61
2022/07/04 10:06:33;;;;;;;0.90;0.50;;;20.70;99.90;;;;;;5032223;28;20210;-61
2022/07/04 10:09:08;;;;;;;1.80;0.50;;;20.60;99.90;;;;;;5037054;28;20192;-61
2022/07/04 10:11:36;;;;;;;2.03;0.60;;;20.60;99.90;;;;;;5034705;28;20282;-62
2022/07/04 10:14:05;;;;;;;2.07;0.50;;;20.50;99.90;;;;;;5043544;28;20223;-61
2022/07/04 10:16:32;;;;;;;2.93;1.53;;;20.40;99.90;;;;;;5037917;28;20199;-61
2022/07/04 10:18:58;;;;;;;0.50;0.50;;;20.30;99.90;;;;;;5044209;28;20215;-61
2022/07/04 10:21:25;;;;;;;1.20;0.67;;;20.20;99.90;;;;;;5044844;28;20210;-61
2022/07/04 10:23:52;;;;;;;0.73;0.50;;;20.10;99.90;;;;;;5025795;28;20215;-62
2022/07/04 10:26:19;;;;;;;4.60;0.40;;;20.20;99.90;;;;;;5038326;28;20226;-61
2022/07/04 10:28:47;;;;;;;1.20;0.60;;;20.40;99.90;;;;;;5040519;28;20214;-61
2022/07/04 10:31:16;;;;;;;1.27;0.43;;;20.50;99.90;;;;;;5045997;28;20195;-61
2022/07/04 10:33:43;;;;;;;0.97;0.50;;;20.40;99.90;;;;;;5033855;28;20227;-62
2022/07/04 10:36:16;;;;;;;1.30;0.70;;;20.40;99.90;;;;;;5045529;28;20671;-61
2022/07/04 10:38:51;;;;;;;5.93;0.70;;;20.30;99.90;;;;;;5024365;28;20234;-61
2022/07/04 10:41:20;;;;;;;0.67;0.57;;;20.40;99.90;;;;;;5037457;28;20257;-61
2022/07/04 10:44:01;;;;;;;0.97;0.50;;;20.40;99.90;;;;;;5038790;28;20207;-62
2022/07/04 10:46:31;;;;;;;1.07;0.50;;;20.40;99.90;;;;;;5044408;28;20211;-62
2022/07/04 10:48:59;;;;;;;1.70;0.43;;;20.30;99.90;;;;;;5035990;28;20199;-62
2022/07/04 10:51:42;;;;;;;0.80;0.70;;;20.40;99.90;;;;;;5044225;28;20200;-62
2022/07/04 10:54:12;;;;;;;1.53;0.80;;;20.60;99.90;;;;;;5037436;28;20262;-62
2022/07/04 10:56:53;;;;;;;2.20;0.43;;;20.70;99.90;;;;;;5021647;28;20211;-63
2022/07/04 10:59:25;;;;;;;0.87;0.50;;;20.60;99.60;;;;;;5040920;28;20302;-62
2022/07/04 11:02:24;;;;;;;0.93;0.50;;;20.70;99.50;;;;;;5042277;28;20245;-63
2022/07/04 11:04:57;;;;;;;0.70;0.47;;;20.90;98.40;;;;;;5037856;28;20205;-62
2022/07/04 11:07:54;;;;;;;2.47;0.77;;;20.90;97.60;;;;;;5041704;28;20207;-60
2022/07/04 11:10:22;;;;;;;0.40;0.40;;;21.00;98.90;;;;;;5029185;28;20214;-62
2022/07/04 11:13:06;;;;;;;0.93;0.40;;;21.10;98.10;;;;;;5034414;28;21399;-60
2022/07/04 11:15:59;;;;;;;0.30;0.30;;;21.30;97.70;;;;;;5035588;28;20287;-60
2022/07/04 11:18:28;;;;;;;2.73;0.60;;;21.30;97.10;;;;;;5041907;28;20219;-62
2022/07/04 11:20:55;;;;;;;2.27;0.60;;;21.20;97.90;;;;;;5037902;28;20188;-62
2022/07/04 11:23:23;;;;;;;0.57;0.40;;;21.30;97.60;;;;;;5044474;28;20250;-62
2022/07/04 11:25:52;;;;;;;3.10;0.70;;;21.20;97.30;;;;;;5025260;28;20226;-62
2022/07/04 11:28:19;;;;;;;2.83;0.70;;;21.20;97.70;;;;;;5044148;28;20195;-62
2022/07/04 11:30:49;;;;;;;0.50;0.50;;;21.20;97.40;;;;;;5034328;28;20219;-62
2022/07/04 11:33:19;;;;;;;0.97;0.40;;;21.10;97.00;;;;;;5038054;28;20215;-62
2022/07/04 11:36:04;;;;;;;0.50;0.50;;;21.10;96.90;;;;;;5038830;28;20199;-62
2022/07/04 11:38:48;;;;;;;0.57;0.40;;;21.00;97.00;;;;;;5039416;28;20222;-63
2022/07/04 11:46:48;;;;;;;1.47;0.90;;;21.00;97.10;;;;;;5033565;28;20206;-63
2022/07/04 11:49:14;;;;;;;1.53;0.77;;;21.20;96.90;;;;;;5040060;28;20656;-63
2022/07/04 11:51:49;;;;;;;1.53;0.80;;;21.20;96.90;;;;;;5040030;28;20214;-63
2022/07/04 11:54:18;;;;;;;1.53;0.70;;;21.20;97.10;;;;;;5040471;28;20221;-63
2022/07/04 11:56:44;;;;;;;2.13;0.73;;;21.20;96.80;;;;;;5038602;28;20200;-63
2022/07/04 11:59:14;;;;;;;1.00;0.90;;;21.20;96.70;;;;;;5028340;28;20241;-63
2022/07/04 12:01:42;;;;;;;1.77;0.83;;;21.10;96.70;;;;;;5029764;28;20203;-61
2022/07/04 12:04:14;;;;;;;2.63;0.83;;;21.20;96.90;;;;;;5038878;28;20223;-63
2022/07/04 12:06:42;;;;;;;0.93;0.67;;;21.20;96.30;;;;;;5034140;28;20298;-63
2022/07/04 12:09:11;;;;;;;1.97;0.60;;;21.20;96.70;;;;;;5033016;28;20816;-63
2022/07/04 12:11:51;;;;;;;2.30;0.70;;;21.20;96.50;;;;;;5043778;28;20199;-63
2022/07/04 12:14:18;;;;;;;1.90;0.97;;;21.30;96.70;;;;;;5018281;28;20219;-62
2022/07/04 12:16:47;;;;;;;2.00;0.67;;;21.40;96.60;;;;;;5037054;28;20253;-63
2022/07/04 12:19:14;;;;;;;0.93;0.47;;;21.60;96.80;;;;;;5034437;28;20215;-64
2022/07/04 12:21:44;;;;;;;1.63;1.10;;;21.90;97.30;;;;;;5043621;28;20207;-63
2022/07/04 12:24:14;;;;;;;0.77;0.70;;;22.10;96.70;;;;;;5038602;28;20219;-64
2022/07/04 12:26:48;;;;;;;1.67;0.50;;;22.10;95.30;;;;;;5042918;28;20712;-64
2022/07/04 12:29:22;;;;;;;0.57;0.50;;;22.00;95.10;;;;;;5023265;28;20211;-64
2022/07/04 12:31:53;;;;;;;2.97;0.60;;;21.90;95.40;;;;;;5032630;28;20602;-63
2022/07/04 12:34:20;;;;;;;2.33;1.43;;;21.90;95.40;;;;;;5037280;28;20215;-64
2022/07/04 12:36:51;;;;;;;1.73;0.57;;;22.00;95.10;;;;;;5042993;28;20207;-64
2022/07/04 12:39:37;;;;;;;2.77;0.60;;;22.10;94.50;;;;;;5039725;28;20218;-64
2022/07/04 12:42:11;;;;;;;0.93;0.60;;;22.10;94.00;;;;;;5038695;28;20226;-65
2022/07/04 12:44:39;;;;;;;2.13;0.75;;;22.20;94.60;;;;;;5040570;28;20226;-63
2022/07/04 12:47:08;;;;;;;6.68;1.00;;;22.50;94.20;;;;;;5017017;28;20203;-64
2022/07/04 12:49:35;;;;;;;3.00;0.90;;;22.80;94.70;;;;;;5041263;28;20210;-62
2022/07/04 12:52:08;;;;;;;2.22;0.70;;;23.20;94.00;;;;;;5039137;28;20199;-65
2022/07/04 12:54:38;;;;;;;2.40;0.43;;;23.30;93.20;;;;;;5041127;28;20231;-65
2022/07/04 12:57:10;;;;;;;0.60;0.40;;;23.20;92.80;;;;;;5035239;28;20203;-65
2022/07/04 12:59:37;;;;;;;3.15;0.98;;;23.00;92.70;;;;;;5042936;28;20656;-64
2022/07/04 13:02:04;;;;;;;2.00;1.13;;;22.80;92.70;;;;;;5018024;28;20209;-65
2022/07/04 13:04:32;;;;;;;1.58;0.70;;;22.60;92.10;;;;;;5038984;28;20243;-64
2022/07/04 13:07:12;;;;;;;1.73;0.60;;;22.40;92.30;;;;;;5035956;28;20218;-64